Thorhult, Minnesota
Current Conditions -  °F | °C
As of 2:53 PM on Tuesday 27 Jan 2015 (Local Time) from KVWU Reporting Station
Scattered Clouds Scattered Clouds  
Wind Chill: -2°   Ceiling: Unl
Heat Index:   Visibility: 10mi
Dew Point: -3°   Wind: 7mph
Humidity: 75%   Direction: 130°SE
Pressure: 30.03"   Gusts: NA
Location:  48.23°N, 95.25°W
Report Text: KVWU 272053Z AUTO 13006KT 10SM SCT070 01/M03 A3003 RMK AO2
Loading
Personal Weather Stations






























Interactive Weather Map New forecast layout! Learn more

10-Day Weather Forecast

Advertisements
Track Severe Weather on mobile